Time;durP1;ratioP1;P1;durP2;ratioP2;P2;SDS_P1;SDS_P2;PMS_P1;PMS_P2;Temp;Humidity;BMP_temperature;BMP_pressure;BME280_temperature;BME280_humidity;BME280_pressure;Samples;Min_cycle;Max_cycle;Signal;HPM_P1;HPM_P2
2023/04/01 00:01:03;;;;;;;4.32;0.93;;;;;;;11.97;68.05;98468.22;4957582;28;20416;-86
2023/04/01 00:03:30;;;;;;;6.30;1.33;;;;;;;11.80;68.63;98478.13;4971422;28;20042;-85
2023/04/01 00:05:58;;;;;;;10.75;3.45;;;;;;;11.86;68.66;98470.31;4974832;28;20047;-86
2023/04/01 00:08:26;;;;;;;4.32;0.90;;;;;;;11.92;68.20;98477.56;4972015;28;20050;-86
2023/04/01 00:10:57;;;;;;;2.53;1.13;;;;;;;11.88;68.46;98470.09;4964569;28;20070;-86
2023/04/01 00:13:26;;;;;;;4.95;1.08;;;;;;;11.82;68.50;98465.47;4973742;28;20050;-86
2023/04/01 00:15:53;;;;;;;6.15;1.08;;;;;;;11.88;68.38;98462.13;4988024;28;20046;-86
2023/04/01 00:18:28;;;;;;;6.28;1.30;;;;;;;11.93;68.10;98471.25;4982629;28;20142;-86
2023/04/01 00:20:57;;;;;;;8.23;1.05;;;;;;;11.91;68.05;98467.94;4973611;28;20096;-86
2023/04/01 00:23:24;;;;;;;19.55;3.72;;;;;;;11.81;67.87;98467.31;4974965;28;20053;-86
2023/04/01 00:25:51;;;;;;;7.93;0.75;;;;;;;11.88;67.58;98470.09;4963715;28;20125;-86
2023/04/01 00:28:20;;;;;;;4.15;0.88;;;;;;;11.88;67.64;98470.09;4968178;28;20050;-86
2023/04/01 00:30:48;;;;;;;12.45;1.10;;;;;;;11.87;67.67;98463.16;4982240;28;20130;-86
2023/04/01 00:33:16;;;;;;;5.05;0.88;;;;;;;11.89;67.67;98475.25;4982449;28;20053;-86
2023/04/01 00:35:44;;;;;;;9.73;2.13;;;;;;;11.89;67.96;98479.75;4977546;28;20420;-86
2023/04/01 00:38:11;;;;;;;11.18;1.70;;;;;;;11.74;67.91;98469.03;4984098;28;20499;-86
2023/04/01 00:40:44;;;;;;;9.38;1.00;;;;;;;11.81;68.00;98471.81;4994154;28;20491;-86
2023/04/01 00:43:15;;;;;;;7.45;0.93;;;;;;;11.78;68.11;98472.16;4962788;28;20054;-86
2023/04/01 00:45:44;;;;;;;3.45;0.80;;;;;;;11.83;67.75;98473.28;4990175;28;20046;-86
2023/04/01 00:48:20;;;;;;;;;;;;;;;11.63;68.00;98477.41;4962217;28;20558;-86
2023/04/01 00:51:03;;;;;;;6.13;1.00;;;;;;;11.71;67.64;98461.41;4967364;28;19968;-86
2023/04/01 00:53:30;;;;;;;3.45;0.73;;;;;;;11.79;67.75;98473.81;4999488;28;20061;-86
2023/04/01 00:56:03;;;;;;;4.40;0.73;;;;;;;11.73;68.16;98476.19;5003917;28;20109;-85
2023/04/01 00:58:31;;;;;;;;;;;;;;;11.55;68.67;98478.28;4957525;28;20053;-86
2023/04/01 01:00:59;;;;;;;6.20;1.08;;;;;;;11.72;68.40;98471.84;4970530;28;19926;-85
2023/04/01 01:03:28;;;;;;;5.03;1.60;;;;;;;11.64;68.51;98479.88;4947395;28;20057;-85
2023/04/01 01:06:00;;;;;;;8.98;1.20;;;;;;;11.76;68.04;98460.88;4962812;28;20586;-85
2023/04/01 01:09:09;;;;;;;5.20;1.65;;;;;;;11.71;68.21;98472.88;4974652;28;20050;-85
2023/04/01 01:11:40;;;;;;;;;;;;;;;11.55;68.46;98458.84;4975704;28;20050;-86
2023/04/01 01:14:41;;;;;;;3.83;1.00;;;;;;;11.68;67.84;98443.97;4979294;28;19926;-86
2023/04/01 01:17:07;;;;;;;11.98;1.42;;;;;;;11.78;68.02;98450.88;4985487;28;20049;-86
2023/04/01 01:19:53;;;;;;;6.10;2.05;;;;;;;11.73;68.09;98454.09;4990592;28;20046;-86
2023/04/01 01:22:35;;;;;;;3.58;0.88;;;;;;;11.79;67.66;98468.50;4967937;28;20484;-86
2023/04/01 01:25:08;;;;;;;10.38;3.03;;;;;;;11.70;68.08;98451.75;4974007;28;20100;-86
2023/04/01 01:27:39;;;;;;;9.63;1.98;;;;;;;11.77;67.83;98449.22;4983917;28;20357;-85
2023/04/01 01:30:52;;;;;;;7.70;1.73;;;;;;;11.64;67.85;98444.50;4962916;28;20561;-86
2023/04/01 01:33:25;;;;;;;4.78;1.13;;;;;;;11.72;67.82;98439.13;4958498;28;20149;-86
2023/04/01 01:35:55;;;;;;;11.02;1.48;;;;;;;11.57;68.24;98439.03;4926471;28;20680;-86
2023/04/01 01:38:30;;;;;;;4.63;1.58;;;;;;;11.68;68.25;98441.31;4971538;28;20561;-86
2023/04/01 01:41:04;;;;;;;12.15;1.27;;;;;;;11.66;68.43;98440.66;4975473;28;20070;-85
2023/04/01 01:43:37;;;;;;;6.72;1.50;;;;;;;11.67;68.43;98426.34;4972970;28;20053;-86
2023/04/01 01:46:19;;;;;;;13.05;1.23;;;;;;;11.74;68.07;98437.94;4986318;28;20124;-86
2023/04/01 01:48:47;;;;;;;4.60;1.30;;;;;;;11.77;67.90;98444.72;4964540;28;20126;-86
2023/04/01 01:51:14;;;;;;;5.45;0.85;;;;;;;11.73;67.85;98430.16;4987156;28;20458;-86
2023/04/01 01:53:47;;;;;;;5.05;1.17;;;;;;;11.69;68.20;98424.34;4960712;28;20042;-86
2023/04/01 01:56:27;;;;;;;6.28;1.13;;;;;;;11.47;68.34;98430.47;5018219;28;20543;-86
2023/04/01 01:59:03;;;;;;;8.20;1.10;;;;;;;11.60;68.41;98435.22;4981342;28;20127;-86
2023/04/01 02:01:31;;;;;;;10.02;1.58;;;;;;;11.63;68.38;98441.00;4985723;28;20045;-86
2023/04/01 02:04:07;;;;;;;9.63;1.35;;;;;;;11.59;68.34;98436.22;4999999;28;20559;-86
2023/04/01 02:06:38;;;;;;;11.30;1.52;;;;;;;11.61;68.36;98415.59;4978590;28;20137;-86
2023/04/01 02:09:06;;;;;;;9.95;0.98;;;;;;;11.63;68.43;98430.38;4987027;28;20440;-85
2023/04/01 02:11:43;;;;;;;13.82;1.45;;;;;;;11.59;67.81;98430.91;4964930;28;20350;-86
2023/04/01 02:14:27;;;;;;;9.73;1.25;;;;;;;11.57;68.35;98420.44;4967864;28;20049;-86
2023/04/01 02:17:08;;;;;;;9.60;1.10;;;;;;;11.63;68.05;98424.25;4963842;28;20698;-86
2023/04/01 02:19:54;;;;;;;5.80;0.95;;;;;;;11.55;68.14;98427.78;4978315;28;20163;-86
2023/04/01 02:22:36;;;;;;;7.43;1.00;;;;;;;11.46;68.28;98434.97;4942969;28;20499;-86
2023/04/01 02:25:09;;;;;;;6.03;1.00;;;;;;;11.51;68.41;98423.81;4957910;28;20043;-85
2023/04/01 02:27:36;;;;;;;15.00;1.05;;;;;;;11.57;68.20;98417.78;4974981;28;20497;-86
2023/04/01 02:30:03;;;;;;;5.85;0.90;;;;;;;11.62;68.21;98435.88;4971235;28;20050;-85
2023/04/01 02:32:31;;;;;;;9.93;1.25;;;;;;;11.63;68.21;98427.72;4973842;28;20046;-86
2023/04/01 02:35:05;;;;;;;9.18;1.30;;;;;;;11.67;67.95;98439.63;4994315;28;20060;-86
2023/04/01 02:37:32;;;;;;;6.55;1.00;;;;;;;11.51;67.72;98421.16;4992910;28;20041;-86
2023/04/01 02:40:07;;;;;;;9.30;1.33;;;;;;;11.60;68.17;98422.75;4973412;28;20867;-86
2023/04/01 02:42:35;;;;;;;8.95;1.00;;;;;;;11.60;68.45;98422.75;4969413;28;20057;-86
2023/04/01 02:45:08;;;;;;;12.98;1.42;;;;;;;11.59;68.55;98429.06;4975432;28;20391;-85
2023/04/01 02:47:38;;;;;;;15.10;1.20;;;;;;;11.58;68.36;98426.59;4997164;28;20046;-86
2023/04/01 02:50:15;;;;;;;10.80;1.20;;;;;;;11.61;68.43;98426.25;4974643;28;20058;-86
2023/04/01 02:52:48;;;;;;;6.13;0.82;;;;;;;11.58;68.35;98431.91;4968864;28;20305;-86
2023/04/01 02:55:15;;;;;;;5.60;0.80;;;;;;;11.57;68.67;98432.91;4943131;28;20042;-86
2023/04/01 02:57:42;;;;;;;5.30;0.77;;;;;;;11.63;68.54;98430.38;4946325;28;20049;-86
2023/04/01 03:00:11;;;;;;;6.32;0.82;;;;;;;11.61;68.12;98431.56;4963168;28;20240;-86
2023/04/01 03:02:39;;;;;;;3.00;0.70;;;;;;;11.37;69.01;98428.06;4991869;28;20045;-86
2023/04/01 03:05:10;;;;;;;9.85;0.90;;;;;;;11.50;68.58;98430.97;4990662;28;20046;-86
2023/04/01 03:07:37;;;;;;;4.95;1.42;;;;;;;11.55;68.66;98435.75;4954588;28;20120;-86
2023/04/01 03:10:05;;;;;;;8.75;1.08;;;;;;;11.45;68.47;98440.47;4961450;28;20407;-86
2023/04/01 03:12:32;;;;;;;2.33;0.80;;;;;;;11.51;68.43;98437.09;4943659;28;20050;-85
2023/04/01 03:14:59;;;;;;;7.75;0.85;;;;;;;11.53;68.36;98440.41;4999019;28;20081;-86
2023/04/01 03:17:39;;;;;;;6.78;1.00;;;;;;;11.55;68.78;98429.59;4986202;28;20471;-86
2023/04/01 03:20:10;;;;;;;3.20;0.63;;;;;;;11.58;68.23;98445.22;4976761;28;20353;-86
2023/04/01 03:22:42;;;;;;;4.78;0.70;;;;;;;11.56;68.39;98452.53;5003979;28;20069;-86
2023/04/01 03:25:14;;;;;;;2.97;0.90;;;;;;;11.60;68.33;98438.72;4947547;28;20188;-86
2023/04/01 03:27:41;;;;;;;9.30;1.00;;;;;;;11.55;68.10;98448.19;4969988;28;20057;-86
2023/04/01 03:30:09;;;;;;;6.45;1.75;;;;;;;11.58;67.84;98439.91;4992053;28;20057;-86
2023/04/01 03:32:44;;;;;;;5.93;2.30;;;;;;;11.59;67.76;98452.16;4982700;28;20455;-86
2023/04/01 03:35:15;;;;;;;12.65;1.55;;;;;;;11.54;67.79;98439.41;4978662;28;20051;-85
2023/04/01 03:37:44;;;;;;;6.55;0.82;;;;;;;11.62;67.72;98451.81;4947727;28;20057;-86
2023/04/01 03:40:11;;;;;;;8.95;0.93;;;;;;;11.60;67.03;98443.19;4993742;28;20055;-87
2023/04/01 03:42:39;;;;;;;5.30;1.00;;;;;;;11.54;66.89;98443.91;4957752;28;20125;-86
2023/04/01 03:45:06;;;;;;;6.60;0.90;;;;;;;11.60;66.84;98437.88;4946662;28;20038;-85
2023/04/01 03:47:33;;;;;;;5.60;1.55;;;;;;;11.63;66.95;98451.66;4978918;28;20324;-86
2023/04/01 03:50:02;;;;;;;2.58;1.63;;;;;;;11.59;66.66;98446.84;4999442;28;20100;-85
2023/04/01 03:52:30;;;;;;;9.50;0.88;;;;;;;11.54;66.85;98442.06;4970157;28;20502;-86
2023/04/01 03:54:57;;;;;;;1.92;0.68;;;;;;;11.53;67.12;98448.41;4973450;28;20138;-86
2023/04/01 03:57:24;;;;;;;2.38;0.75;;;;;;;11.55;67.18;98454.38;4972337;28;20050;-86
2023/04/01 03:59:52;;;;;;;4.60;0.95;;;;;;;11.48;67.03;98448.91;5005858;28;20047;-86
2023/04/01 04:02:19;;;;;;;6.00;0.60;;;;;;;11.48;66.89;98459.53;4985123;28;20078;-85
2023/04/01 04:04:46;;;;;;;5.03;0.60;;;;;;;11.50;66.95;98456.72;4964598;28;20050;-86
2023/04/01 04:07:13;;;;;;;7.78;1.52;;;;;;;11.46;67.07;98452.75;4954772;28;20038;-85
2023/04/01 04:10:00;;;;;;;4.72;0.60;;;;;;;11.44;66.83;98449.44;4942418;28;20206;-86
2023/04/01 04:12:27;;;;;;;5.88;1.05;;;;;;;11.46;66.67;98450.91;4986286;28;20428;-86
2023/04/01 04:14:54;;;;;;;8.23;1.02;;;;;;;11.34;66.91;98454.16;4985810;28;20061;-86
2023/04/01 04:17:25;;;;;;;6.35;0.90;;;;;;;11.43;66.82;98445.97;4985883;28;20503;-85
2023/04/01 04:19:53;;;;;;;3.70;0.88;;;;;;;11.46;67.17;98458.06;4966071;28;20137;-86
2023/04/01 04:22:20;;;;;;;6.15;1.08;;;;;;;11.46;66.95;98461.53;4981755;28;20054;-85
2023/04/01 04:24:48;;;;;;;9.43;2.45;;;;;;;11.44;66.82;98460.88;4957023;28;20096;-86
2023/04/01 04:27:17;;;;;;;5.05;1.63;;;;;;;11.41;67.02;98455.09;4968689;28;20462;-85
2023/04/01 04:29:53;;;;;;;4.00;1.10;;;;;;;11.45;67.39;98454.59;4951669;28;20515;-86
2023/04/01 04:32:20;;;;;;;11.43;1.65;;;;;;;11.47;67.30;98454.41;4972984;28;20133;-86
2023/04/01 04:34:48;;;;;;;11.00;0.93;;;;;;;11.38;67.69;98453.63;4973502;28;20125;-86
2023/04/01 04:37:15;;;;;;;6.30;0.68;;;;;;;11.34;67.67;98448.81;4977834;28;20371;-85
2023/04/01 04:39:44;;;;;;;8.05;1.02;;;;;;;11.33;68.04;98455.97;4965836;28;20050;-86
2023/04/01 04:42:14;;;;;;;8.15;1.45;;;;;;;11.35;68.15;98451.31;4973081;28;21053;-86
2023/04/01 04:44:51;;;;;;;9.95;1.40;;;;;;;11.24;68.52;98441.88;4997212;28;20046;-86
2023/04/01 04:47:18;;;;;;;3.60;1.00;;;;;;;11.30;68.62;98448.38;4989845;28;20089;-86
2023/04/01 04:49:45;;;;;;;11.90;2.08;;;;;;;11.30;68.54;98449.19;4980306;28;20048;-86
2023/04/01 04:52:12;;;;;;;4.85;1.27;;;;;;;11.34;68.28;98454.16;4978886;28;20046;-86
2023/04/01 04:54:39;;;;;;;16.15;1.52;;;;;;;11.23;68.82;98442.91;4991856;28;20046;-86
2023/04/01 04:57:08;;;;;;;6.78;1.00;;;;;;;11.28;68.93;98442.38;4977043;28;20134;-86
2023/04/01 04:59:45;;;;;;;7.75;0.88;;;;;;;11.26;68.35;98439.88;4998896;28;20048;-86
2023/04/01 05:02:17;;;;;;;8.43;1.08;;;;;;;11.24;68.94;98439.22;4982556;28;20693;-86
2023/04/01 05:04:44;;;;;;;11.30;1.65;;;;;;;11.22;69.01;98441.25;4986583;28;20042;-86
2023/04/01 05:07:11;;;;;;;6.32;0.98;;;;;;;11.23;69.23;98434.09;4976592;28;20060;-85
2023/04/01 05:09:37;;;;;;;5.45;0.90;;;;;;;11.22;68.92;98427.13;5014419;28;20773;-86
2023/04/01 05:12:05;;;;;;;8.90;0.90;;;;;;;11.07;69.25;98435.03;5001163;28;20665;-86
2023/04/01 05:14:50;;;;;;;9.98;0.98;;;;;;;11.25;68.55;98430.28;4978445;28;20047;-85
2023/04/01 05:17:17;;;;;;;7.32;1.10;;;;;;;11.23;68.64;98411.03;4945802;28;20085;-86
2023/04/01 05:19:45;;;;;;;10.50;1.13;;;;;;;11.26;68.59;98423.13;4974234;28;20105;-86
2023/04/01 05:22:12;;;;;;;6.13;1.60;;;;;;;11.30;68.57;98416.47;4941365;28;20063;-86
2023/04/01 05:24:39;;;;;;;9.65;1.40;;;;;;;11.25;68.05;98419.66;4992781;28;20084;-85
2023/04/01 05:27:05;;;;;;;9.20;1.63;;;;;;;11.32;67.48;98419.75;4972910;28;20114;-85
2023/04/01 05:29:36;;;;;;;8.10;1.20;;;;;;;11.26;67.63;98407.19;4999285;28;20416;-86
2023/04/01 05:32:06;;;;;;;13.85;2.25;;;;;;;11.34;67.68;98425.72;5001148;28;20057;-86
2023/04/01 05:34:34;;;;;;;8.85;1.05;;;;;;;11.30;67.43;98417.28;4976662;28;20054;-85
2023/04/01 05:37:01;;;;;;;11.43;1.30;;;;;;;11.43;66.69;98400.78;4933071;28;20365;-86
2023/04/01 05:39:29;;;;;;;8.07;1.08;;;;;;;11.38;66.93;98415.59;4969569;28;20417;-85
2023/04/01 05:41:56;;;;;;;15.10;3.08;;;;;;;11.37;67.08;98405.94;4950461;28;20435;-86
2023/04/01 05:44:22;;;;;;;12.27;1.50;;;;;;;11.36;67.29;98399.81;4962510;28;20057;-86
2023/04/01 05:47:03;;;;;;;15.38;1.70;;;;;;;11.38;67.28;98400.47;4981374;28;20126;-86
2023/04/01 05:49:33;;;;;;;7.15;1.40;;;;;;;11.45;67.22;98396.13;4950830;28;20143;-86
2023/04/01 05:52:04;;;;;;;11.25;1.90;;;;;;;11.38;67.09;98389.84;4987384;28;20198;-85
2023/04/01 05:54:34;;;;;;;7.10;1.38;;;;;;;11.39;67.14;98386.16;4994128;28;20646;-85
2023/04/01 05:57:07;;;;;;;6.65;2.15;;;;;;;11.46;66.95;98395.09;4958619;28;20116;-86
2023/04/01 05:59:41;;;;;;;6.22;1.00;;;;;;;11.44;66.90;98391.78;4967713;28;20221;-86
2023/04/01 06:02:38;;;;;;;10.75;1.25;;;;;;;11.38;66.56;98392.50;4970535;28;20041;-86
2023/04/01 06:05:38;;;;;;;9.77;1.20;;;;;;;11.31;66.95;98402.16;4944357;28;20379;-86
2023/04/01 06:08:10;;;;;;;2.20;0.90;;;;;;;11.40;66.80;98406.44;4931420;28;20089;-86
2023/04/01 06:11:01;;;;;;;15.38;1.80;;;;;;;11.36;66.38;98404.31;4950456;28;20074;-85
2023/04/01 06:13:58;;;;;;;5.03;0.90;;;;;;;11.26;66.55;98405.34;4961365;28;20358;-85
2023/04/01 06:16:31;;;;;;;9.88;2.00;;;;;;;11.34;66.91;98395.69;4991981;28;20396;-86
2023/04/01 06:19:21;;;;;;;8.32;1.02;;;;;;;11.19;66.75;98398.25;5017428;28;20581;-86
2023/04/01 06:22:14;;;;;;;10.63;1.10;;;;;;;11.28;66.82;98405.19;4980006;28;20050;-85
2023/04/01 06:25:22;;;;;;;7.32;0.93;;;;;;;11.28;67.09;98399.88;5003910;28;20129;-86
2023/04/01 06:28:05;;;;;;;6.32;1.20;;;;;;;11.35;66.50;98392.84;4947036;28;20053;-86
2023/04/01 06:31:02;;;;;;;14.23;2.30;;;;;;;11.40;66.82;98413.59;4966641;28;20550;-85
2023/04/01 06:33:59;;;;;;;6.15;1.25;;;;;;;11.24;66.95;98394.06;4963785;28;20045;-86
2023/04/01 06:36:42;;;;;;;10.07;1.10;;;;;;;11.36;67.28;98409.63;4993529;28;20062;-86
2023/04/01 06:39:22;;;;;;;7.65;1.00;;;;;;;11.35;66.92;98424.75;5000462;28;20070;-86
2023/04/01 06:42:30;;;;;;;4.35;1.20;;;;;;;11.30;66.18;98408.50;4993604;28;20143;-86
2023/04/01 06:45:33;;;;;;;4.10;0.80;;;;;;;11.23;66.72;98413.69;5024990;28;20479;-86
2023/04/01 06:48:52;;;;;;;11.30;1.30;;;;;;;11.27;67.16;98409.69;4893909;28;20052;-86
2023/04/01 06:51:58;;;;;;;1.90;0.80;;;;;;;11.28;67.34;98413.16;5004827;28;20076;-85
2023/04/01 06:54:51;;;;;;;3.63;0.80;;;;;;;11.29;67.39;98418.28;4983005;28;20054;-86
2023/04/01 06:57:48;;;;;;;6.28;1.05;;;;;;;11.29;67.99;98417.47;4985288;28;20814;-86
2023/04/01 07:00:33;;;;;;;6.82;1.17;;;;;;;11.30;67.56;98419.13;4985308;28;20050;-86
2023/04/01 07:03:23;;;;;;;2.67;0.85;;;;;;;11.28;67.92;98423.78;4978134;28;20129;-86
2023/04/01 07:05:50;;;;;;;11.32;1.55;;;;;;;11.24;68.24;98417.97;4972224;28;20058;-86
2023/04/01 07:08:23;;;;;;;5.93;0.90;;;;;;;11.30;68.25;98419.13;4986046;28;20058;-85
2023/04/01 07:10:54;;;;;;;9.60;1.10;;;;;;;11.27;68.84;98420.31;4988590;28;20146;-85
2023/04/01 07:14:11;;;;;;;13.02;1.25;;;;;;;11.35;69.09;98421.25;4972426;28;20049;-87
2023/04/01 07:16:49;;;;;;;5.82;0.80;;;;;;;11.34;69.07;98415.09;4969279;28;20481;-86
2023/04/01 07:19:22;;;;;;;3.25;0.65;;;;;;;11.30;70.11;98419.13;4961225;28;20086;-86
2023/04/01 07:22:05;;;;;;;5.82;1.23;;;;;;;11.27;69.45;98430.09;4965060;28;20135;-86
2023/04/01 07:24:54;;;;;;;3.78;1.02;;;;;;;11.24;70.01;98412.66;5003216;28;20054;-86
2023/04/01 07:27:22;;;;;;;8.45;1.77;;;;;;;11.27;70.16;98408.81;4996566;28;20050;-85
2023/04/01 07:29:49;;;;;;;3.92;1.10;;;;;;;11.23;71.05;98423.47;4960054;28;20092;-85
2023/04/01 07:32:56;;;;;;;6.68;1.27;;;;;;;11.19;72.65;98422.16;4975464;28;20052;-86
2023/04/01 07:35:30;;;;;;;6.53;1.00;;;;;;;11.26;70.86;98418.63;5001373;28;20045;-86
2023/04/01 07:38:26;;;;;;;4.90;1.40;;;;;;;11.21;72.10;98418.34;4970424;28;20153;-86
2023/04/01 07:41:26;;;;;;;8.63;0.80;;;;;;;11.19;72.25;98428.31;4962657;28;20054;-86
2023/04/01 07:44:24;;;;;;;7.97;1.30;;;;;;;11.21;72.17;98433.44;4963761;28;20388;-86
2023/04/01 07:47:03;;;;;;;4.90;1.15;;;;;;;11.17;73.92;98429.47;4942694;28;20043;-86
2023/04/01 07:49:32;;;;;;;2.47;1.15;;;;;;;11.14;74.09;98435.97;4984157;28;20503;-85
2023/04/01 07:52:37;;;;;;;7.10;1.98;;;;;;;11.12;74.73;98435.34;4960996;28;20046;-87
2023/04/01 07:55:45;;;;;;;4.85;1.05;;;;;;;11.07;75.80;98433.19;5016853;28;20467;-86
2023/04/01 07:58:20;;;;;;;3.97;0.95;;;;;;;11.06;75.49;98423.56;4960577;28;20121;-86
2023/04/01 08:01:19;;;;;;;6.40;0.90;;;;;;;11.07;75.17;98433.19;4982549;28;20112;-86
2023/04/01 08:03:52;;;;;;;6.05;1.98;;;;;;;11.03;75.12;98439.84;4985044;28;20081;-86
2023/04/01 08:06:33;;;;;;;6.78;1.40;;;;;;;11.00;75.44;98437.53;4975046;28;20135;-86
2023/04/01 08:09:14;;;;;;;2.90;1.52;;;;;;;10.90;76.06;98431.59;4983594;28;20504;-86
2023/04/01 08:12:18;;;;;;;3.67;1.13;;;;;;;10.95;76.77;98444.38;4988532;28;20128;-86
2023/04/01 08:15:21;;;;;;;4.78;1.15;;;;;;;11.05;76.15;98445.81;4995382;28;20055;-86
2023/04/01 08:18:15;;;;;;;5.50;1.30;;;;;;;11.01;76.89;98441.84;4967403;28;20117;-86
2023/04/01 08:20:51;;;;;;;6.72;1.50;;;;;;;11.02;77.32;98443.50;4981414;28;20054;-87
2023/04/01 08:23:47;;;;;;;4.03;1.20;;;;;;;11.00;78.61;98440.19;5007616;28;20050;-86
2023/04/01 08:26:34;;;;;;;7.40;1.35;;;;;;;10.97;78.36;98451.16;4977433;28;20049;-86
2023/04/01 08:29:09;;;;;;;3.03;1.38;;;;;;;11.10;77.01;98452.44;5011275;28;20533;-85
2023/04/01 08:31:52;;;;;;;3.50;1.00;;;;;;;11.14;76.87;98453.75;4977312;28;20066;-86
2023/04/01 08:34:20;;;;;;;;;;;;;;;10.98;78.29;98442.19;4965272;28;20054;-86
2023/04/01 08:36:53;;;;;;;4.95;1.20;;;;;;;11.12;77.64;98442.44;5001052;28;20699;-86
2023/04/01 08:39:47;;;;;;;3.33;1.10;;;;;;;11.11;77.61;98448.78;4974049;28;20439;-86
2023/04/01 08:42:27;;;;;;;3.33;0.90;;;;;;;11.02;78.18;98448.81;5000496;28;20050;-86
2023/04/01 08:45:22;;;;;;;7.43;1.27;;;;;;;11.10;76.94;98437.34;4954905;28;20057;-86
2023/04/01 08:48:31;;;;;;;5.15;1.95;;;;;;;10.93;79.05;98446.38;4987342;28;20165;-86
2023/04/01 08:51:18;;;;;;;15.70;2.53;;;;;;;10.93;79.14;98455.16;4984308;28;20046;-86
2023/04/01 08:53:56;;;;;;;3.65;1.30;;;;;;;11.06;78.53;98444.81;4988071;28;20092;-87
2023/04/01 08:56:40;;;;;;;7.60;1.38;;;;;;;10.96;79.09;98446.84;4979958;28;20058;-86
2023/04/01 08:59:56;;;;;;;1.77;1.10;;;;;;;10.93;79.81;98443.72;4958930;28;20363;-86
2023/04/01 09:02:47;;;;;;;3.05;1.17;;;;;;;11.04;79.13;98449.47;4977356;28;20046;-86
2023/04/01 09:06:04;;;;;;;5.53;1.25;;;;;;;11.14;78.40;98451.09;4975828;28;20057;-86
2023/04/01 09:08:51;;;;;;;3.70;1.10;;;;;;;11.03;79.49;98445.16;4924291;28;20456;-86
2023/04/01 09:11:49;;;;;;;12.60;1.42;;;;;;;11.05;79.28;98450.31;4988278;28;20404;-86
2023/04/01 09:14:37;;;;;;;4.03;1.30;;;;;;;11.13;78.91;98450.25;4991227;28;20057;-86
2023/04/01 09:17:36;;;;;;;1.60;0.68;;;;;;;11.18;78.56;98447.09;4980932;28;20034;-86
2023/04/01 09:20:45;;;;;;;2.13;1.00;;;;;;;10.90;81.56;98457.34;4968581;28;20061;-86
2023/04/01 09:23:35;;;;;;;3.88;0.90;;;;;;;11.07;79.59;98457.09;4982677;28;20113;-86
2023/04/01 09:26:39;;;;;;;9.50;1.15;;;;;;;11.07;80.30;98445.66;4988638;28;20046;-86
2023/04/01 09:29:34;;;;;;;2.75;1.05;;;;;;;11.05;81.05;98439.69;4993357;28;20041;-86
2023/04/01 09:32:38;;;;;;;6.70;1.27;;;;;;;10.93;81.90;98455.16;4971107;28;20062;-86
2023/04/01 09:35:42;;;;;;;8.63;1.20;;;;;;;11.06;81.34;98455.44;4972119;28;20078;-87
2023/04/01 09:38:20;;;;;;;12.57;3.30;;;;;;;10.99;81.36;98443.00;4961037;28;20163;-85
2023/04/01 09:40:55;;;;;;;14.18;3.17;;;;;;;11.13;81.11;98452.91;4967786;28;20121;-86
2023/04/01 09:44:04;;;;;;;12.73;1.70;;;;;;;11.00;82.33;98447.34;4986227;28;20552;-87
2023/04/01 09:46:54;;;;;;;8.60;1.70;;;;;;;11.16;81.22;98457.06;4947673;28;20578;-87
2023/04/01 09:49:48;;;;;;;5.68;1.13;;;;;;;11.07;83.25;98457.09;4961952;28;20422;-86
2023/04/01 09:52:47;;;;;;;14.70;1.70;;;;;;;11.13;82.39;98452.91;4976703;28;20043;-86
2023/04/01 09:55:36;;;;;;;3.33;1.45;;;;;;;11.17;81.31;98464.88;4966245;28;20065;-86
2023/04/01 09:58:27;;;;;;;4.80;1.90;;;;;;;11.17;82.74;98464.88;4982846;28;20144;-86
2023/04/01 10:01:56;;;;;;;6.93;1.37;;;;;;;11.09;83.64;98470.19;5003281;28;20541;-87
2023/04/01 10:04:47;;;;;;;3.67;0.90;;;;;;;11.17;82.25;98464.00;4981292;28;20059;-86
2023/04/01 10:07:26;;;;;;;5.53;1.45;;;;;;;11.19;81.90;98486.75;4977911;28;20081;-86
2023/04/01 10:10:18;;;;;;;5.90;0.98;;;;;;;11.15;81.97;98466.88;4981100;28;20424;-86
2023/04/01 10:12:59;;;;;;;8.88;1.27;;;;;;;11.13;82.37;98462.72;4992237;28;20056;-86
2023/04/01 10:15:40;;;;;;;5.63;1.17;;;;;;;11.01;84.00;98475.53;5004288;28;20050;-86
2023/04/01 10:18:40;;;;;;;4.60;1.10;;;;;;;11.07;83.69;98478.34;4976091;28;20049;-86
2023/04/01 10:21:12;;;;;;;4.55;1.30;;;;;;;11.20;82.26;98474.31;4955188;28;20055;-86
2023/04/01 10:23:58;;;;;;;11.02;3.58;;;;;;;11.28;82.27;98482.25;4974201;28;20046;-86
2023/04/01 10:26:50;;;;;;;2.70;0.93;;;;;;;10.99;85.17;98475.72;4969445;28;20057;-87
2023/04/01 10:30:01;;;;;;;3.08;0.88;;;;;;;11.03;84.73;98481.53;4941065;28;20074;-86
2023/04/01 10:33:00;;;;;;;5.30;1.25;;;;;;;11.19;83.02;98476.13;4954583;28;20057;-86
2023/04/01 10:35:50;;;;;;;2.92;1.77;;;;;;;11.20;84.11;98483.13;5000488;28;20049;-86
2023/04/01 10:38:22;;;;;;;3.00;0.73;;;;;;;11.26;82.83;98471.78;4978915;28;20049;-86
2023/04/01 10:41:24;;;;;;;1.80;0.90;;;;;;;11.25;84.22;98483.41;4987999;28;20041;-86
2023/04/01 10:44:19;;;;;;;3.22;1.33;;;;;;;11.11;85.62;98486.78;5021624;28;20049;-85
2023/04/01 10:47:06;;;;;;;7.35;1.90;;;;;;;11.17;85.08;98486.13;4986658;28;20073;-86
2023/04/01 10:49:49;;;;;;;2.75;1.00;;;;;;;11.24;84.59;98473.78;4974761;28;20372;-86
2023/04/01 10:52:40;;;;;;;2.65;1.20;;;;;;;11.21;83.25;98482.09;4980774;28;20049;-86
2023/04/01 10:55:42;;;;;;;7.72;2.30;;;;;;;11.24;84.25;98483.59;4988669;28;20061;-86
2023/04/01 10:59:06;;;;;;;0.88;0.75;;;;;;;11.26;83.43;98479.75;4903400;28;20043;-86
2023/04/01 11:02:21;;;;;;;2.42;1.00;;;;;;;11.21;85.11;98473.31;4953942;28;20055;-86
2023/04/01 11:05:29;;;;;;;2.53;1.00;;;;;;;11.10;86.75;98486.97;4996421;28;20245;-86
2023/04/01 11:08:23;;;;;;;2.15;1.10;;;;;;;11.26;83.81;98478.94;4961503;28;20052;-86
2023/04/01 11:11:14;;;;;;;16.58;5.55;;;;;;;11.18;85.16;98477.13;4992431;28;20089;-86
2023/04/01 11:14:08;;;;;;;5.47;2.55;;;;;;;11.25;84.37;98485.25;5005215;28;20053;-86
2023/04/01 11:16:54;;;;;;;;;;;;;;;11.18;84.31;98484.28;4980521;28;20052;-86
2023/04/01 11:19:48;;;;;;;35.90;5.28;;;;;;;11.12;86.02;98491.13;5012438;28;20478;-87
2023/04/01 11:22:45;;;;;;;3.70;1.30;;;;;;;11.15;85.45;98495.25;4987966;28;20499;-86
2023/04/01 11:25:29;;;;;;;4.97;1.02;;;;;;;11.23;84.68;98481.94;4965675;28;20042;-86
2023/04/01 11:28:27;;;;;;;1.08;0.65;;;;;;;11.32;83.72;98486.19;5000305;28;20523;-86
2023/04/01 11:31:02;;;;;;;2.13;0.70;;;;;;;11.23;85.17;98482.75;5003222;28;20145;-86
2023/04/01 11:33:47;;;;;;;4.15;1.02;;;;;;;11.23;85.72;98490.72;4966970;28;20682;-86
2023/04/01 11:36:30;;;;;;;1.48;0.80;;;;;;;11.34;84.24;98489.50;4979383;28;20414;-86
2023/04/01 11:39:08;;;;;;;3.33;1.55;;;;;;;11.38;84.62;98490.00;4969424;28;20046;-86
2023/04/01 11:42:13;;;;;;;2.97;1.10;;;;;;;11.33;84.39;98487.88;4970046;28;20112;-85
2023/04/01 11:45:33;;;;;;;3.47;1.25;;;;;;;11.27;84.94;98499.16;4962615;28;20116;-86
2023/04/01 11:48:23;;;;;;;2.35;1.35;;;;;;;11.25;84.78;98499.38;4965940;28;20053;-85
2023/04/01 11:51:25;;;;;;;3.15;1.00;;;;;;;11.03;86.81;98492.97;4972358;28;20486;-85
2023/04/01 11:54:33;;;;;;;2.33;1.25;;;;;;;11.21;85.57;98498.03;4916643;28;20046;-85
2023/04/01 11:57:16;;;;;;;1.70;0.80;;;;;;;11.23;85.20;98508.50;4962123;28;20046;-85
2023/04/01 11:59:46;;;;;;;1.88;1.05;;;;;;;11.27;84.77;98500.03;4981308;28;20047;-86
2023/04/01 12:02:35;;;;;;;3.58;1.55;;;;;;;11.29;86.57;98505.97;5000001;28;20495;-86
2023/04/01 12:05:33;;;;;;;2.10;1.27;;;;;;;11.20;88.07;98506.19;4983153;28;20050;-85
2023/04/01 12:08:18;;;;;;;2.08;1.00;;;;;;;11.21;86.88;98513.97;4979104;28;20049;-86
2023/04/01 12:10:54;;;;;;;4.93;1.20;;;;;;;11.18;86.22;98524.13;4987457;28;20074;-86
2023/04/01 12:13:30;;;;;;;2.03;1.05;;;;;;;11.36;84.59;98521.25;4966918;28;20132;-86
2023/04/01 12:16:06;;;;;;;2.95;1.30;;;;;;;11.36;85.44;98516.75;5005243;28;20631;-85
2023/04/01 12:18:59;;;;;;;2.05;1.20;;;;;;;11.33;85.81;98501.16;5019648;28;20066;-86
2023/04/01 12:21:42;;;;;;;3.22;1.10;;;;;;;11.36;86.37;98519.41;4954790;28;20525;-86
2023/04/01 12:24:35;;;;;;;1.15;1.02;;;;;;;11.37;85.86;98520.22;4979049;28;20041;-86
2023/04/01 12:27:31;;;;;;;1.58;1.15;;;;;;;11.38;86.27;98519.25;4967067;28;20510;-85
2023/04/01 12:30:14;;;;;;;2.83;0.80;;;;;;;11.34;87.73;98523.25;4971523;28;20074;-86
2023/04/01 12:33:02;;;;;;;2.03;0.88;;;;;;;11.40;85.79;98523.38;4988560;28;20431;-86
2023/04/01 12:35:39;;;;;;;8.43;1.90;;;;;;;11.39;86.39;98531.53;4965033;28;20714;-86
2023/04/01 12:39:04;;;;;;;1.55;0.85;;;;;;;11.23;88.20;98525.28;4968912;28;20627;-86